Time;durP1;ratioP1;P1;durP2;ratioP2;P2;SDS_P1;SDS_P2;PMS_P1;PMS_P2;Temp;Humidity;BMP_temperature;BMP_pressure;BME280_temperature;BME280_humidity;BME280_pressure;Samples;Min_cycle;Max_cycle;Signal;HPM_P1;HPM_P2
2024/04/10 00:01:53;;;;;;;;;;;10.20;72.20;;;;;;5417300;26;19936;-67
2024/04/10 00:04:19;;;;;;;;;;;10.20;72.20;;;;;;5417296;26;19929;-66
2024/04/10 00:06:45;;;;;;;;;;;10.20;69.80;;;;;;5417148;26;19948;-67
2024/04/10 00:09:10;;;;;;;;;;;10.20;73.20;;;;;;5416726;26;20272;-66
2024/04/10 00:11:36;;;;;;;;;;;10.20;71.10;;;;;;5416950;26;19929;-66
2024/04/10 00:14:02;;;;;;;;;;;10.50;67.20;;;;;;5417191;26;20368;-67
2024/04/10 00:16:27;;;;;;;;;;;9.70;67.40;;;;;;5417002;26;19936;-66
2024/04/10 00:18:53;;;;;;;;;;;10.20;69.40;;;;;;5416570;26;19929;-66
2024/04/10 00:21:18;;;;;;;;;;;10.10;69.50;;;;;;5417026;26;19937;-66
2024/04/10 00:23:45;;;;;;;;;;;10.10;69.60;;;;;;5416947;26;19998;-66
2024/04/10 00:26:10;;;;;;;;;;;10.10;71.90;;;;;;5416840;26;19932;-67
2024/04/10 00:28:36;;;;;;;;;;;10.10;71.00;;;;;;5416460;26;20442;-67
2024/04/10 00:31:05;;;;;;;;;;;10.10;66.00;;;;;;5416787;26;19945;-66
2024/04/10 00:33:30;;;;;;;;;;;9.70;59.10;;;;;;5416851;26;19935;-67
2024/04/10 00:36:00;;;;;;;;;;;9.70;65.40;;;;;;5416833;26;19929;-66
2024/04/10 00:38:26;;;;;;;;;;;9.60;63.70;;;;;;5416825;26;19929;-66
2024/04/10 00:40:52;;;;;;;;;;;10.00;68.20;;;;;;5416340;26;19929;-66
2024/04/10 00:43:17;;;;;;;;;;;10.00;68.00;;;;;;5416688;26;19994;-66
2024/04/10 00:45:43;;;;;;;;;;;10.00;68.10;;;;;;5416675;26;19937;-66
2024/04/10 00:48:08;;;;;;;;;;;10.00;69.20;;;;;;5416656;26;19929;-66
2024/04/10 00:50:34;;;;;;;;;;;10.00;71.90;;;;;;5416101;26;19929;-66
2024/04/10 00:53:00;;;;;;;;;;;9.90;74.30;;;;;;5416622;26;19961;-66
2024/04/10 00:55:25;;;;;;;;;;;9.90;75.80;;;;;;5416347;26;19928;-66
2024/04/10 00:57:51;;;;;;;;;;;9.80;77.20;;;;;;5416460;26;19929;-67
2024/04/10 01:00:16;;;;;;;;;;;9.80;80.70;;;;;;5415839;26;19997;-67
2024/04/10 01:02:42;;;;;;;;;;;9.40;81.70;;;;;;5416364;26;19929;-66
2024/04/10 01:05:08;;;;;;;;;;;9.70;84.30;;;;;;5416465;26;19970;-66
2024/04/10 01:07:34;;;;;;;;;;;9.60;86.10;;;;;;5415249;26;19929;-66
2024/04/10 01:09:59;;;;;;;;;;;9.60;88.60;;;;;;5415692;26;19929;-66
2024/04/10 01:12:28;;;;;;;;;;;9.60;89.00;;;;;;5416156;26;20269;-66
2024/04/10 01:14:54;;;;;;;;;;;9.20;90.20;;;;;;5416183;26;19930;-66
2024/04/10 01:17:19;;;;;;;;;;;9.50;91.90;;;;;;5416157;26;19929;-66
2024/04/10 01:19:44;;;;;;;;;;;9.40;92.70;;;;;;5415542;26;20350;-66
2024/04/10 01:22:10;;;;;;;;;;;9.50;93.30;;;;;;5416364;26;19936;-66
2024/04/10 01:24:35;;;;;;;;;;;9.30;94.00;;;;;;5416036;26;19943;-66
2024/04/10 01:27:02;;;;;;;;;;;9.30;93.90;;;;;;5416026;26;20365;-66
2024/04/10 01:29:28;;;;;;;;;;;9.30;94.10;;;;;;5415514;26;19929;-66
2024/04/10 01:31:53;;;;;;;;;;;9.30;93.80;;;;;;5415909;26;20391;-66
2024/04/10 01:34:19;;;;;;;;;;;9.30;94.80;;;;;;5415954;26;20487;-66
2024/04/10 01:36:44;;;;;;;;;;;9.30;95.00;;;;;;5415854;26;19929;-66
2024/04/10 01:39:10;;;;;;;;;;;9.10;95.40;;;;;;5415229;26;19929;-66
2024/04/10 01:41:35;;;;;;;;;;;9.30;95.60;;;;;;5415623;26;19994;-66
2024/04/10 01:44:01;;;;;;;;;;;9.30;94.80;;;;;;5415938;26;20280;-67
2024/04/10 01:46:26;;;;;;;;;;;9.30;94.80;;;;;;5415751;26;19937;-67
2024/04/10 01:48:52;;;;;;;;;;;9.20;94.70;;;;;;5415181;26;19936;-67
2024/04/10 01:51:18;;;;;;;;;;;9.30;95.90;;;;;;5415595;26;19929;-66
2024/04/10 01:53:43;;;;;;;;;;;9.20;95.80;;;;;;5415521;26;20438;-66
2024/04/10 01:56:09;;;;;;;;;;;9.10;98.00;;;;;;5415457;26;19940;-67
2024/04/10 01:58:34;;;;;;;;;;;9.10;99.10;;;;;;5415127;26;19957;-66
2024/04/10 02:01:00;;;;;;;;;;;8.90;99.90;;;;;;5415440;26;20146;-66
2024/04/10 02:03:25;;;;;;;;;;;9.00;99.90;;;;;;5415488;26;20381;-66
2024/04/10 02:05:51;;;;;;;;;;;8.90;99.90;;;;;;5415342;26;19932;-66
2024/04/10 02:08:16;;;;;;;;;;;8.90;99.90;;;;;;5415138;26;19941;-66
2024/04/10 02:10:41;;;;;;;;;;;8.90;99.90;;;;;;5414717;26;19998;-66
2024/04/10 02:13:07;;;;;;;;;;;8.90;99.90;;;;;;5415243;26;19929;-67
2024/04/10 02:15:32;;;;;;;;;;;8.40;99.90;;;;;;5413411;26;20001;-66
2024/04/10 02:17:58;;;;;;;;;;;8.90;99.90;;;;;;5415144;26;19928;-66
2024/04/10 02:20:23;;;;;;;;;;;8.90;99.90;;;;;;5417851;26;20269;-66
2024/04/10 02:22:49;;;;;;;;;;;8.80;99.90;;;;;;5418629;26;19928;-66
2024/04/10 02:25:14;;;;;;;;;;;8.80;99.90;;;;;;5418672;26;20381;-66
2024/04/10 02:27:40;;;;;;;;;;;8.80;99.90;;;;;;5418597;26;19998;-66
2024/04/10 02:30:06;;;;;;;;;;;8.80;99.90;;;;;;5418087;26;19928;-66
2024/04/10 02:32:32;;;;;;;;;;;8.30;99.90;;;;;;5418522;26;19997;-66
2024/04/10 02:34:57;;;;;;;;;;;8.70;99.90;;;;;;5418535;26;19941;-67
2024/04/10 02:37:23;;;;;;;;;;;8.70;99.90;;;;;;5418496;26;20435;-67
2024/04/10 02:39:49;;;;;;;;;;;8.70;99.90;;;;;;5418154;26;19937;-67
2024/04/10 02:42:14;;;;;;;;;;;8.70;99.90;;;;;;5418349;26;19929;-67
2024/04/10 02:44:40;;;;;;;;;;;8.70;99.90;;;;;;5418317;26;19965;-67
2024/04/10 02:47:06;;;;;;;;;;;8.60;99.90;;;;;;5418357;26;19936;-67
2024/04/10 02:49:31;;;;;;;;;;;8.30;99.90;;;;;;5417986;26;20257;-67
2024/04/10 02:51:57;;;;;;;;;;;8.30;99.90;;;;;;5418213;26;19935;-67
2024/04/10 02:54:22;;;;;;;;;;;8.60;99.90;;;;;;5418334;26;19933;-67
2024/04/10 02:56:48;;;;;;;;;;;8.90;99.90;;;;;;5418150;26;19937;-67
2024/04/10 02:59:14;;;;;;;;;;;8.80;99.90;;;;;;5418055;26;19940;-67
2024/04/10 03:01:40;;;;;;;;;;;8.70;99.90;;;;;;5418165;26;19929;-67
2024/04/10 03:04:05;;;;;;;;;;;8.70;99.90;;;;;;5418225;26;19953;-67
2024/04/10 03:06:31;;;;;;;;;;;8.60;99.90;;;;;;5418047;26;19941;-67
2024/04/10 03:08:56;;;;;;;;;;;8.80;99.90;;;;;;5417760;26;19957;-67
2024/04/10 03:11:22;;;;;;;;;;;8.60;99.90;;;;;;5418084;26;19929;-67
2024/04/10 03:13:47;;;;;;;;;;;8.50;99.90;;;;;;5417971;26;19957;-67
2024/04/10 03:16:13;;;;;;;;;;;8.10;99.90;;;;;;5416249;26;19962;-67
2024/04/10 03:18:39;;;;;;;;;;;8.70;99.90;;;;;;5417696;26;19941;-67
2024/04/10 03:21:04;;;;;;;;;;;8.50;99.90;;;;;;5417583;26;19929;-67
2024/04/10 03:23:30;;;;;;;;;;;8.50;99.90;;;;;;5417852;26;19933;-67
2024/04/10 03:26:00;;;;;;;;;;;8.50;99.90;;;;;;5417973;26;19945;-67
2024/04/10 03:28:25;;;;;;;;;;;8.30;99.90;;;;;;5417932;26;19936;-67
2024/04/10 03:30:53;;;;;;;;;;;8.50;99.90;;;;;;5416879;26;19929;-67
2024/04/10 03:33:19;;;;;;;;;;;8.00;99.90;;;;;;5417674;26;19929;-67
2024/04/10 03:35:44;;;;;;;;;;;8.80;99.90;;;;;;5417675;26;19935;-67
2024/04/10 03:38:10;;;;;;;;;;;8.70;99.90;;;;;;5417658;26;19969;-67
2024/04/10 03:40:36;;;;;;;;;;;8.60;99.90;;;;;;5417298;26;19957;-67
2024/04/10 03:43:01;;;;;;;;;;;8.50;99.90;;;;;;5417516;26;19929;-67
2024/04/10 03:45:27;;;;;;;;;;;8.30;99.90;;;;;;5417568;26;20272;-67
2024/04/10 03:47:53;;;;;;;;;;;8.50;99.90;;;;;;5417524;26;19929;-67
2024/04/10 03:50:18;;;;;;;;;;;8.00;99.90;;;;;;5417018;26;19929;-67
2024/04/10 03:52:44;;;;;;;;;;;8.50;99.90;;;;;;5417414;26;19929;-67
2024/04/10 03:55:10;;;;;;;;;;;8.70;99.90;;;;;;5417476;26;19974;-67
2024/04/10 03:57:35;;;;;;;;;;;8.40;99.90;;;;;;5417446;26;20254;-67
2024/04/10 04:00:02;;;;;;;;;;;8.40;99.90;;;;;;5417008;26;19929;-67
2024/04/10 04:02:27;;;;;;;;;;;8.30;99.90;;;;;;5417338;26;19962;-67
2024/04/10 04:04:53;;;;;;;;;;;8.60;99.90;;;;;;5417187;26;19928;-67
2024/04/10 04:07:18;;;;;;;;;;;8.50;99.90;;;;;;5417229;26;19936;-67
2024/04/10 04:09:44;;;;;;;;;;;8.30;99.90;;;;;;5416647;26;19965;-67
2024/04/10 04:12:09;;;;;;;;;;;8.40;99.90;;;;;;5417170;26;20009;-66
2024/04/10 04:14:35;;;;;;;;;;;8.40;99.90;;;;;;5417125;26;19929;-67
2024/04/10 04:17:00;;;;;;;;;;;8.50;99.90;;;;;;5417134;26;19935;-67
2024/04/10 04:19:25;;;;;;;;;;;8.30;99.90;;;;;;5416525;26;19962;-66
2024/04/10 04:21:51;;;;;;;;;;;8.80;99.90;;;;;;5416931;26;19969;-67
2024/04/10 04:24:18;;;;;;;;;;;8.20;99.90;;;;;;5417012;26;19961;-66
2024/04/10 04:26:44;;;;;;;;;;;8.40;99.90;;;;;;5416882;26;20446;-67
2024/04/10 04:29:10;;;;;;;;;;;8.50;99.90;;;;;;5416574;26;19940;-66
2024/04/10 04:31:35;;;;;;;;;;;8.50;99.90;;;;;;5416909;26;19929;-67
2024/04/10 04:34:09;;;;;;;;;;;8.20;99.90;;;;;;5416809;26;19936;-68
2024/04/10 04:36:35;;;;;;;;;;;8.40;99.90;;;;;;5416815;26;19929;-66
2024/04/10 04:39:01;;;;;;;;;;;8.40;99.90;;;;;;5416745;26;19936;-66
2024/04/10 04:41:27;;;;;;;;;;;8.50;99.90;;;;;;5416295;26;20269;-67
2024/04/10 04:43:52;;;;;;;;;;;8.30;99.90;;;;;;5415663;26;19940;-67
2024/04/10 04:46:19;;;;;;;;;;;8.50;99.90;;;;;;5416643;26;19929;-66
2024/04/10 04:48:44;;;;;;;;;;;7.80;99.90;;;;;;5416219;26;19929;-66
2024/04/10 04:51:11;;;;;;;;;;;8.70;99.90;;;;;;5416585;26;20260;-66
2024/04/10 04:53:37;;;;;;;;;;;8.40;99.90;;;;;;5416534;26;19929;-67
2024/04/10 04:56:02;;;;;;;;;;;8.30;99.90;;;;;;5416519;26;19929;-67
2024/04/10 04:58:28;;;;;;;;;;;7.80;99.90;;;;;;5416545;26;19999;-67
2024/04/10 05:00:54;;;;;;;;;;;8.40;99.90;;;;;;5416089;26;19936;-67
2024/04/10 05:06:04;;;;;;;;;;;8.30;99.90;;;;;;5416545;26;19936;-66
2024/04/10 05:08:30;;;;;;;;;;;8.00;99.90;;;;;;5416450;26;20775;-67
2024/04/10 05:10:55;;;;;;;;;;;8.50;99.90;;;;;;5415910;26;19965;-67
2024/04/10 05:13:21;;;;;;;;;;;8.50;99.90;;;;;;5416226;26;19965;-66
2024/04/10 05:15:46;;;;;;;;;;;8.30;99.90;;;;;;5416214;26;20277;-67
2024/04/10 05:18:12;;;;;;;;;;;8.40;99.90;;;;;;5416070;26;19929;-67
2024/04/10 05:20:37;;;;;;;;;;;8.50;99.90;;;;;;5415566;26;19975;-66
2024/04/10 05:23:03;;;;;;;;;;;8.50;99.90;;;;;;5416072;26;19961;-66
2024/04/10 05:25:29;;;;;;;;;;;7.90;99.90;;;;;;5416130;26;20019;-66
2024/04/10 05:27:55;;;;;;;;;;;8.40;99.90;;;;;;5415995;26;19937;-67
2024/04/10 05:30:21;;;;;;;;;;;8.40;99.90;;;;;;5415428;26;19937;-67
2024/04/10 05:32:47;;;;;;;;;;;8.10;99.90;;;;;;5415843;26;19929;-66
2024/04/10 05:35:14;;;;;;;;;;;8.50;99.90;;;;;;5415806;26;19940;-67
2024/04/10 05:37:39;;;;;;;;;;;8.50;99.90;;;;;;5415886;26;19937;-67
2024/04/10 05:40:16;;;;;;;;;;;8.70;99.90;;;;;;5415360;26;19945;-67
2024/04/10 05:42:43;;;;;;;;;;;8.20;99.90;;;;;;5415795;26;19929;-66
2024/04/10 05:45:09;;;;;;;;;;;8.70;99.90;;;;;;5415777;26;19993;-68
2024/04/10 05:47:35;;;;;;;;;;;8.80;99.90;;;;;;5415683;26;19948;-67
2024/04/10 05:50:00;;;;;;;;;;;8.90;99.90;;;;;;5415199;26;19929;-68
2024/04/10 05:52:26;;;;;;;;;;;9.00;99.90;;;;;;5410634;26;19998;-68
2024/04/10 05:54:53;;;;;;;;;;;9.10;99.90;;;;;;5407538;26;19940;-68
2024/04/10 05:57:18;;;;;;;;;;;9.10;99.90;;;;;;5419115;26;20030;-68
2024/04/10 05:59:44;;;;;;;;;;;9.10;99.90;;;;;;5418502;26;19944;-68
2024/04/10 06:02:09;;;;;;;;;;;9.10;99.90;;;;;;5418819;26;19936;-68
2024/04/10 06:04:35;;;;;;;;;;;9.00;99.90;;;;;;5408470;26;20343;-68
2024/04/10 06:07:02;;;;;;;;;;;9.00;99.90;;;;;;5399403;26;19936;-68
2024/04/10 06:09:27;;;;;;;;;;;9.00;99.90;;;;;;5401884;26;20022;-68
2024/04/10 06:11:53;;;;;;;;;;;9.00;99.90;;;;;;5409450;26;19971;-68
2024/04/10 06:14:18;;;;;;;;;;;8.90;99.90;;;;;;5418901;26;19929;-68
2024/04/10 06:16:43;;;;;;;;;;;8.90;99.90;;;;;;5418813;26;19929;-68
2024/04/10 06:19:09;;;;;;;;;;;8.80;99.90;;;;;;5418176;26;19975;-68
2024/04/10 06:21:34;;;;;;;;;;;8.40;99.90;;;;;;5418822;26;20280;-68
2024/04/10 06:24:00;;;;;;;;;;;8.90;99.90;;;;;;5418569;26;20019;-68
2024/04/10 06:26:25;;;;;;;;;;;8.90;99.90;;;;;;5418620;26;19936;-68
2024/04/10 06:28:51;;;;;;;;;;;9.00;99.90;;;;;;5413971;26;20373;-68
2024/04/10 06:31:17;;;;;;;;;;;9.00;99.90;;;;;;5402113;26;19935;-68
2024/04/10 06:33:42;;;;;;;;;;;9.10;99.90;;;;;;5398927;26;19973;-68
2024/04/10 06:36:08;;;;;;;;;;;9.10;99.90;;;;;;5399982;26;19998;-68
2024/04/10 06:38:34;;;;;;;;;;;9.10;99.90;;;;;;5392119;26;19929;-68
2024/04/10 06:41:01;;;;;;;;;;;9.40;99.90;;;;;;5382734;26;19937;-68
2024/04/10 06:43:26;;;;;;;;;;;9.00;99.90;;;;;;5382858;26;19954;-68
2024/04/10 06:45:56;;;;;;;;;;;9.50;99.90;;;;;;5389083;26;19999;-68
2024/04/10 06:48:21;;;;;;;;;;;9.20;99.00;;;;;;5406688;26;20369;-68
2024/04/10 06:50:47;;;;;;;;;;;9.70;99.90;;;;;;5417766;26;19932;-67
2024/04/10 06:53:15;;;;;;;;;;;9.70;99.10;;;;;;5418313;26;19941;-68
2024/04/10 06:55:41;;;;;;;;;;;9.80;98.20;;;;;;5418207;26;19929;-67
2024/04/10 06:58:06;;;;;;;;;;;9.60;94.70;;;;;;5418196;26;19936;-68
2024/04/10 07:00:33;;;;;;;;;;;9.70;95.30;;;;;;5417663;26;19929;-68
2024/04/10 07:02:58;;;;;;;;;;;9.70;94.60;;;;;;5418004;26;20004;-68
2024/04/10 07:05:24;;;;;;;;;;;9.80;96.10;;;;;;5397209;26;20393;-68
2024/04/10 07:07:50;;;;;;;;;;;9.40;96.00;;;;;;5382464;26;20028;-68
2024/04/10 07:10:15;;;;;;;;;;;9.80;94.30;;;;;;5391751;26;20297;-68
2024/04/10 07:12:41;;;;;;;;;;;10.00;93.10;;;;;;5382489;26;19930;-67
2024/04/10 07:15:07;;;;;;;;;;;10.00;91.20;;;;;;5382523;26;19938;-67
2024/04/10 07:17:33;;;;;;;;;;;9.70;89.30;;;;;;5382586;26;20357;-67
2024/04/10 07:19:58;;;;;;;;;;;10.10;87.40;;;;;;5391466;26;19929;-67
2024/04/10 07:22:24;;;;;;;;;;;9.90;88.40;;;;;;5382350;26;19930;-67
2024/04/10 07:24:49;;;;;;;;;;;10.30;77.50;;;;;;5382475;26;19937;-67
2024/04/10 07:27:15;;;;;;;;;;;10.40;84.90;;;;;;5382329;26;19937;-67
2024/04/10 07:29:42;;;;;;;;;;;10.60;84.50;;;;;;5390455;26;19941;-67
2024/04/10 07:32:08;;;;;;;;;;;10.60;80.40;;;;;;5417477;26;19929;-67
2024/04/10 07:34:33;;;;;;;;;;;10.80;77.80;;;;;;5417759;26;19929;-67
2024/04/10 07:36:59;;;;;;;;;;;11.00;67.30;;;;;;5417528;26;19929;-67
2024/04/10 07:39:24;;;;;;;;;;;11.20;53.90;;;;;;5406887;26;19929;-67
2024/04/10 07:41:50;;;;;;;;;;;11.30;47.10;;;;;;5417653;26;20042;-67
2024/04/10 07:44:16;;;;;;;;;;;11.00;43.80;;;;;;5417444;26;19957;-67
2024/04/10 07:46:43;;;;;;;;;;;11.50;45.30;;;;;;5417387;26;19940;-67
2024/04/10 07:49:10;;;;;;;;;;;11.50;57.60;;;;;;5416980;26;19944;-67
2024/04/10 07:51:35;;;;;;;;;;;11.90;48.70;;;;;;5417480;26;19936;-67
2024/04/10 07:54:01;;;;;;;;;;;11.80;33.90;;;;;;5417758;26;19929;-67
2024/04/10 07:56:26;;;;;;;;;;;12.00;23.80;;;;;;5417345;26;19936;-67
2024/04/10 07:58:52;;;;;;;;;;;12.20;28.90;;;;;;5406605;26;20374;-67
2024/04/10 08:01:19;;;;;;;;;;;12.10;25.80;;;;;;5396502;26;19936;-67
2024/04/10 08:03:45;;;;;;;;;;;12.00;20.00;;;;;;5390428;26;19937;-67
2024/04/10 08:06:11;;;;;;;;;;;12.00;26.80;;;;;;5402877;26;19937;-67
2024/04/10 08:08:39;;;;;;;;;;;12.10;25.50;;;;;;5394651;26;19981;-67
2024/04/10 08:11:11;;;;;;;;;;;11.80;25.80;;;;;;5384115;26;19929;-67
2024/04/10 08:13:37;;;;;;;;;;;11.60;21.80;;;;;;5381523;26;19929;-67
2024/04/10 08:16:04;;;;;;;;;;;11.90;24.30;;;;;;5381110;26;19937;-67
2024/04/10 08:18:31;;;;;;;;;;;11.60;24.60;;;;;;5381478;26;19929;-67
2024/04/10 08:21:06;;;;;;;;;;;11.60;24.90;;;;;;5380945;26;19930;-68
2024/04/10 08:23:32;;;;;;;;;;;11.40;26.00;;;;;;5381323;26;19930;-68
2024/04/10 08:25:58;;;;;;;;;;;11.60;30.50;;;;;;5381406;26;19945;-67
2024/04/10 08:28:27;;;;;;;;;;;12.00;25.40;;;;;;5381514;26;19937;-67
2024/04/10 08:30:56;;;;;;;;;;;12.10;24.20;;;;;;5380954;26;19933;-67
2024/04/10 08:33:27;;;;;;;;;;;12.00;19.20;;;;;;5381341;26;19936;-67
2024/04/10 08:36:00;;;;;;;;;;;12.10;25.00;;;;;;5381332;26;20003;-67
2024/04/10 08:38:26;;;;;;;;;;;12.20;14.80;;;;;;5381362;26;19957;-67
2024/04/10 08:40:52;;;;;;;;;;;12.50;19.10;;;;;;5380587;26;20362;-67
2024/04/10 08:43:19;;;;;;;;;;;12.30;19.30;;;;;;5381063;26;19957;-67
2024/04/10 08:45:44;;;;;;;;;;;12.40;18.20;;;;;;5381215;26;20280;-67
2024/04/10 08:48:10;;;;;;;;;;;12.40;19.10;;;;;;5381384;26;19962;-67
2024/04/10 08:50:37;;;;;;;;;;;12.50;26.10;;;;;;5380667;26;19929;-67
2024/04/10 08:53:02;;;;;;;;;;;12.40;3.90;;;;;;5380997;26;19942;-67
2024/04/10 08:55:28;;;;;;;;;;;12.20;1.00;;;;;;5381205;26;19933;-67
2024/04/10 08:57:54;;;;;;;;;;;12.50;4.60;;;;;;5381010;26;19937;-67
2024/04/10 09:00:20;;;;;;;;;;;12.50;5.20;;;;;;5380368;26;20603;-67
2024/04/10 09:02:46;;;;;;;;;;;12.60;5.40;;;;;;5380983;26;19929;-67
2024/04/10 09:05:11;;;;;;;;;;;12.80;3.90;;;;;;5380910;26;19929;-67
2024/04/10 09:07:37;;;;;;;;;;;12.80;1.00;;;;;;5380841;26;19941;-67
2024/04/10 09:10:09;;;;;;;;;;;13.00;1.00;;;;;;5380331;26;19940;-67
2024/04/10 09:12:34;;;;;;;;;;;12.80;1.00;;;;;;5387217;26;20351;-67
2024/04/10 09:15:09;;;;;;;;;;;12.60;1.00;;;;;;5411058;26;19941;-67
2024/04/10 09:17:35;;;;;;;;;;;12.60;1.00;;;;;;5416109;26;19961;-67
2024/04/10 09:20:11;;;;;;;;;;;12.60;1.00;;;;;;5415422;26;19929;-67
2024/04/10 09:22:36;;;;;;;;;;;12.50;1.00;;;;;;5416158;26;19929;-67
2024/04/10 09:25:12;;;;;;;;;;;12.80;1.00;;;;;;5415826;26;20636;-67
2024/04/10 09:27:37;;;;;;;;;;;13.10;1.00;;;;;;5415815;26;19945;-67
2024/04/10 09:30:03;;;;;;;;;;;13.10;1.00;;;;;;5414795;26;20006;-68
2024/04/10 09:32:29;;;;;;;;;;;13.20;1.00;;;;;;5415958;26;19941;-68
2024/04/10 09:34:55;;;;;;;;;;;13.10;1.00;;;;;;5416122;26;19935;-68
2024/04/10 09:37:21;;;;;;;;;;;13.20;1.00;;;;;;5416000;26;20006;-68
2024/04/10 09:39:46;;;;;;;;;;;13.10;1.00;;;;;;5415723;26;19929;-68
2024/04/10 09:42:23;;;;;;;;;;;13.30;1.00;;;;;;5415732;26;20015;-67
2024/04/10 09:44:50;;;;;;;;;;;13.20;1.00;;;;;;5415918;26;19936;-68
2024/04/10 09:47:16;;;;;;;;;;;13.30;1.00;;;;;;5415629;26;19929;-68
2024/04/10 09:49:42;;;;;;;;;;;13.20;1.00;;;;;;5415419;26;19929;-67
2024/04/10 09:52:08;;;;;;;;;;;13.00;1.00;;;;;;5415491;26;19929;-67
2024/04/10 09:54:34;;;;;;;;;;;13.40;1.00;;;;;;5415555;26;19929;-67
2024/04/10 09:57:00;;;;;;;;;;;13.70;1.00;;;;;;5415599;26;20369;-67
2024/04/10 09:59:25;;;;;;;;;;;14.00;1.00;;;;;;5414987;26;19937;-67
2024/04/10 10:01:54;;;;;;;;;;;14.10;1.00;;;;;;5411779;26;19936;-67
2024/04/10 10:04:20;;;;;;;;;;;14.20;1.00;;;;;;5398839;26;20273;-67
2024/04/10 10:06:45;;;;;;;;;;;14.40;1.00;;;;;;5395630;26;19932;-67
2024/04/10 10:09:21;;;;;;;;;;;14.40;1.00;;;;;;5387217;26;19929;-67
2024/04/10 10:11:55;;;;;;;;;;;14.50;1.00;;;;;;5379800;26;19999;-67
2024/04/10 10:14:24;;;;;;;;;;;14.60;1.00;;;;;;5379796;26;19953;-67
2024/04/10 10:16:49;;;;;;;;;;;14.80;1.00;;;;;;5379803;26;20030;-67
2024/04/10 10:19:19;;;;;;;;;;;14.80;1.00;;;;;;5379177;26;20445;-67
2024/04/10 10:21:45;;;;;;;;;;;14.70;1.00;;;;;;5379749;26;19937;-67
2024/04/10 10:24:12;;;;;;;;;;;14.60;1.00;;;;;;5379361;26;19941;-67
2024/04/10 10:26:37;;;;;;;;;;;14.40;1.00;;;;;;5379481;26;19930;-67
2024/04/10 10:29:03;;;;;;;;;;;14.30;1.00;;;;;;5388616;26;19929;-67
2024/04/10 10:31:29;;;;;;;;;;;14.30;1.00;;;;;;5379534;26;19980;-67
2024/04/10 10:34:12;;;;;;;;;;;14.40;1.00;;;;;;5379526;26;19929;-66
2024/04/10 10:36:38;;;;;;;;;;;14.60;1.00;;;;;;5379339;26;19929;-66
2024/04/10 10:39:08;;;;;;;;;;;14.70;1.00;;;;;;5379077;26;19936;-67
2024/04/10 10:41:34;;;;;;;;;;;14.50;1.00;;;;;;5381454;26;19937;-67
2024/04/10 10:44:00;;;;;;;;;;;14.70;1.00;;;;;;5383065;26;19936;-67
2024/04/10 10:46:26;;;;;;;;;;;14.90;1.00;;;;;;5382970;26;19930;-67
2024/04/10 10:48:52;;;;;;;;;;;15.10;1.00;;;;;;5382446;26;19930;-67
2024/04/10 10:51:18;;;;;;;;;;;15.40;1.00;;;;;;5382960;26;20006;-67
2024/04/10 10:53:44;;;;;;;;;;;15.40;1.00;;;;;;5382816;26;20389;-67
2024/04/10 10:56:09;;;;;;;;;;;15.50;1.00;;;;;;5392104;26;19942;-67
2024/04/10 10:58:35;;;;;;;;;;;15.70;1.00;;;;;;5382508;26;19979;-66
2024/04/10 11:01:06;;;;;;;;;;;15.60;1.00;;;;;;5396193;26;19998;-67
2024/04/10 11:03:32;;;;;;;;;;;15.50;1.00;;;;;;5418148;26;19930;-67
2024/04/10 11:06:10;;;;;;;;;;;15.10;1.00;;;;;;5417999;26;19929;-66
2024/04/10 11:08:35;;;;;;;;;;;14.80;1.00;;;;;;5417705;26;19941;-66
2024/04/10 11:11:01;;;;;;;;;;;14.80;1.00;;;;;;5417518;26;19929;-67
2024/04/10 11:13:26;;;;;;;;;;;14.70;1.00;;;;;;5417944;26;19929;-67
2024/04/10 11:15:56;;;;;;;;;;;14.70;1.00;;;;;;5418109;26;19935;-67
2024/04/10 11:18:22;;;;;;;;;;;14.80;1.00;;;;;;5417861;26;19929;-67
2024/04/10 11:20:49;;;;;;;;;;;15.00;1.00;;;;;;5417420;26;20278;-67
2024/04/10 11:23:15;;;;;;;;;;;15.10;1.00;;;;;;5417850;26;19929;-67
2024/04/10 11:25:41;;;;;;;;;;;15.30;1.00;;;;;;5417773;26;19995;-67
2024/04/10 11:28:07;;;;;;;;;;;15.40;1.00;;;;;;5417875;26;19937;-67
2024/04/10 11:30:32;;;;;;;;;;;15.70;1.00;;;;;;5417387;26;19936;-67
2024/04/10 11:32:58;;;;;;;;;;;15.80;1.00;;;;;;5417798;26;20282;-67
2024/04/10 11:35:24;;;;;;;;;;;15.90;1.00;;;;;;5417796;26;19936;-67
2024/04/10 11:37:50;;;;;;;;;;;15.90;1.00;;;;;;5417670;26;19929;-67
2024/04/10 11:40:16;;;;;;;;;;;16.20;1.00;;;;;;5417187;26;19929;-67
2024/04/10 11:42:41;;;;;;;;;;;16.20;1.00;;;;;;5417689;26;19936;-67
2024/04/10 11:45:07;;;;;;;;;;;16.40;1.00;;;;;;5417633;26;20261;-67
2024/04/10 11:47:33;;;;;;;;;;;16.30;1.00;;;;;;5417609;26;19929;-67
2024/04/10 11:49:59;;;;;;;;;;;16.50;1.00;;;;;;5417189;26;19936;-68
2024/04/10 11:52:24;;;;;;;;;;;17.00;1.00;;;;;;5416813;26;19941;-68
2024/04/10 11:54:50;;;;;;;;;;;17.50;1.00;;;;;;5417461;26;20286;-68
2024/04/10 11:57:15;;;;;;;;;;;18.00;1.00;;;;;;5417391;26;19929;-68
2024/04/10 11:59:41;;;;;;;;;;;18.70;1.00;;;;;;5417063;26;19936;-68
2024/04/10 12:02:06;;;;;;;;;;;19.10;1.00;;;;;;5417081;26;20365;-68
2024/04/10 12:04:32;;;;;;;;;;;19.70;1.00;;;;;;5417321;26;19936;-68
2024/04/10 12:06:58;;;;;;;;;;;20.20;1.00;;;;;;5417158;26;19999;-68
2024/04/10 12:09:25;;;;;;;;;;;20.80;1.00;;;;;;5416800;26;19998;-68
2024/04/10 12:11:51;;;;;;;;;;;21.40;1.00;;;;;;5417170;26;20397;-68
2024/04/10 12:14:16;;;;;;;;;;;21.80;1.00;;;;;;5417167;26;19936;-68
2024/04/10 12:16:41;;;;;;;;;;;22.00;1.00;;;;;;5417177;26;19941;-68
2024/04/10 12:19:07;;;;;;;;;;;22.50;1.00;;;;;;5416813;26;19997;-68
2024/04/10 12:21:32;;;;;;;;;;;22.00;1.00;;;;;;5416895;26;19958;-68
2024/04/10 12:23:58;;;;;;;;;;;22.20;1.00;;;;;;5417017;26;19929;-68
2024/04/10 12:26:23;;;;;;;;;;;22.40;1.00;;;;;;5417036;26;20386;-68
2024/04/10 12:28:49;;;;;;;;;;;22.90;1.00;;;;;;5416780;26;19998;-68
2024/04/10 12:31:15;;;;;;;;;;;23.00;1.00;;;;;;5416733;26;20272;-68
2024/04/10 12:33:41;;;;;;;;;;;23.00;1.00;;;;;;5416936;26;19936;-68
2024/04/10 12:38:51;;;;;;;;;;;23.00;1.00;;;;;;5416409;26;19936;-68
2024/04/10 12:41:16;;;;;;;;;;;23.10;1.00;;;;;;5416716;26;19929;-68
2024/04/10 12:43:42;;;;;;;;;;;23.10;1.00;;;;;;5416798;26;20036;-68
2024/04/10 12:46:08;;;;;;;;;;;23.10;1.00;;;;;;5416591;26;19936;-68
2024/04/10 12:48:34;;;;;;;;;;;23.10;1.00;;;;;;5416754;26;20297;-68
2024/04/10 12:50:59;;;;;;;;;;;22.70;1.00;;;;;;5416267;26;19936;-68
2024/04/10 12:53:25;;;;;;;;;;;22.80;1.00;;;;;;5416499;26;19929;-68
2024/04/10 12:55:51;;;;;;;;;;;22.60;1.00;;;;;;5416502;26;19929;-68
2024/04/10 12:58:16;;;;;;;;;;;22.60;1.00;;;;;;5411610;26;19944;-68
2024/04/10 13:00:42;;;;;;;;;;;23.00;1.00;;;;;;5405301;26;20280;-68
2024/04/10 13:03:07;;;;;;;;;;;22.60;1.00;;;;;;5415051;26;19929;-68
2024/04/10 13:05:33;;;;;;;;;;;22.50;1.00;;;;;;5416415;26;19932;-68
2024/04/10 13:07:59;;;;;;;;;;;21.70;1.00;;;;;;5416282;26;19929;-68
2024/04/10 13:10:24;;;;;;;;;;;21.60;1.00;;;;;;5415885;26;20631;-68
2024/04/10 13:12:49;;;;;;;;;;;22.40;1.00;;;;;;5416178;26;19936;-68
2024/04/10 13:15:15;;;;;;;;;;;23.00;1.00;;;;;;5416366;26;20267;-68
2024/04/10 13:17:40;;;;;;;;;;;23.40;1.00;;;;;;5416360;26;19929;-68
2024/04/10 13:20:06;;;;;;;;;;;23.80;1.00;;;;;;5415683;26;19929;-68
2024/04/10 13:23:51;;;;;;;;;;;23.60;1.00;;;;;;5582141;25;19923;-69
2024/04/10 13:26:16;;;;;;;;;;;24.20;1.00;;;;;;5582132;25;20379;-69
2024/04/10 13:28:42;;;;;;;;;;;24.70;1.00;;;;;;5581711;25;19933;-69
2024/04/10 13:31:11;;;;;;;;;;;25.40;1.00;;;;;;5582127;25;19927;-69
2024/04/10 13:33:40;;;;;;;;;;;25.40;1.00;;;;;;5581833;25;19931;-69
2024/04/10 13:36:06;;;;;;;;;;;25.40;1.00;;;;;;5582111;25;19933;-69
2024/04/10 13:38:32;;;;;;;;;;;25.20;1.00;;;;;;5581813;25;19938;-69
2024/04/10 13:41:01;;;;;;;;;;;24.70;1.00;;;;;;5581663;25;19959;-69
2024/04/10 13:43:28;;;;;;;;;;;24.10;1.00;;;;;;5581719;25;19934;-69
2024/04/10 13:45:54;;;;;;;;;;;24.10;1.00;;;;;;5581880;25;19931;-69
2024/04/10 13:48:19;;;;;;;;;;;24.50;1.00;;;;;;5581775;25;19975;-69
2024/04/10 13:50:45;;;;;;;;;;;24.40;1.00;;;;;;5581360;25;19927;-69
2024/04/10 13:53:10;;;;;;;;;;;25.00;1.00;;;;;;5581624;25;19934;-69
2024/04/10 13:55:36;;;;;;;;;;;25.30;1.00;;;;;;5581629;25;20375;-69
2024/04/10 13:58:01;;;;;;;;;;;25.50;1.00;;;;;;5581632;25;19931;-69
2024/04/10 14:00:30;;;;;;;;;;;25.50;1.00;;;;;;5580202;25;19931;-69
2024/04/10 14:02:55;;;;;;;;;;;25.90;1.00;;;;;;5572407;25;20015;-69
2024/04/10 14:05:21;;;;;;;;;;;26.40;1.00;;;;;;5581578;25;19934;-69
2024/04/10 14:07:46;;;;;;;;;;;25.50;1.00;;;;;;5581352;25;19927;-69
2024/04/10 14:10:12;;;;;;;;;;;24.80;1.00;;;;;;5581112;25;19927;-69
2024/04/10 14:12:37;;;;;;;;;;;25.40;1.00;;;;;;5581296;25;19927;-69
2024/04/10 14:15:03;;;;;;;;;;;26.00;1.00;;;;;;5581946;25;20377;-69
2024/04/10 14:17:30;;;;;;;;;;;26.70;1.00;;;;;;5557888;25;19934;-68
2024/04/10 14:19:56;;;;;;;;;;;27.10;1.00;;;;;;5566873;25;19934;-68
2024/04/10 14:22:21;;;;;;;;;;;27.30;1.00;;;;;;5562008;25;19959;-67
2024/04/10 14:24:47;;;;;;;;;;;27.50;1.00;;;;;;5560148;25;20367;-67
2024/04/10 14:27:12;;;;;;;;;;;27.70;1.00;;;;;;5565014;25;19939;-67
2024/04/10 14:29:38;;;;;;;;;;;27.40;1.00;;;;;;5556895;25;19927;-68